RKSG METAR and TAF | Updated Today

RKSG METAR

A 511 Airport

Observation time: 36 min. ago

RKSG 292023Z 00000KT 1/2SM R32/1000V4500FT FG BKN005 13/13 A3002 RMK AO2A TWR VIS 1 VIS 3/8V1 SLP170 TSNO $

Need help? Read our tutorial on how to read METARs or read the parsed version below.

A 511 Airport (RKSG) METAR

  • Weather conditions on Thu, 29 Sep 2022 20:23:00 +0000 (36 min. ago):
  • Present conditions: Fog
  • Clouds: Broken sky at 152 meters
  • Visibility: 805 meters
  • Wind: Calm
  • Temperature: 13 celsius
  • Dew point: 13 celsius
  • Pressure: 30.02 millibars
  • Remarks: AO2A TWR VIS 1 VIS 3/8V1 SLP170 TSNO $


Useful to know...

RKSG TAF

A 511 Airport

TAF AMD RKSG 291930Z 2919/0101 VRB06KT 1600 BR BKN006 QNH2998INS BECMG 3000/3001 VRB06KT 4800 BR SKC QNH2997INS TX24/3007Z TN12/2922Z
Observation time: 89 min. ago
Need help? Read our tutorial on how to read TAFs or read the parsed version below.

Parsed version of TAF for A 511 Airport (RKSG)

  • From 29 September at 19:00 UTC, to day 01 of the month at 01:00 UTC
  • Clouds: Broken sky at 183 meters
  • Visibility: 1600 meters
  • Wind: Variable at 6
  • Other: Mist
  • Expected to arise soon, from 30 September at 00:00 UTC, to day 30 of the month at 01:00 UTC
  • Clouds: No significant changes expected
  • Visibility: 4800 meters
  • Wind: Variable at 6
  • Other: Mist